createdAt,value
2017-09-27T00:00:23.464Z,14.54
2017-09-27T00:01:32.294Z,14.42
2017-09-27T00:02:41.127Z,14.46
2017-09-27T00:03:49.959Z,14.45
2017-09-27T00:04:58.794Z,14.51
2017-09-27T00:06:07.778Z,14.47
2017-09-27T00:07:16.612Z,14.43
2017-09-27T00:08:25.445Z,14.33
2017-09-27T00:09:34.277Z,14.42
2017-09-27T00:10:43.113Z,14.46
2017-09-27T00:11:52.574Z,14.45
2017-09-27T00:13:01.407Z,14.42
2017-09-27T00:14:10.241Z,14.42
2017-09-27T00:15:19.075Z,14.4
2017-09-27T00:16:27.907Z,14.4
2017-09-27T00:17:36.789Z,14.43
2017-09-27T00:18:45.623Z,14.37
2017-09-27T00:19:54.454Z,14.39
2017-09-27T00:21:03.289Z,14.37
2017-09-27T00:22:12.124Z,14.32
2017-09-27T00:23:21.113Z,14.32
2017-09-27T00:24:29.944Z,14.32
2017-09-27T00:25:38.982Z,14.32
2017-09-27T00:26:47.817Z,14.32
2017-09-27T00:27:56.649Z,14.29
2017-09-27T00:29:05.632Z,14.28
2017-09-27T00:30:14.466Z,14.35
2017-09-27T00:31:23.300Z,14.28
2017-09-27T00:32:32.133Z,14.32
2017-09-27T00:33:40.964Z,14.32
2017-09-27T00:34:49.851Z,14.28
2017-09-27T00:35:58.684Z,14.27
2017-09-27T00:37:07.516Z,14.32
2017-09-27T00:38:16.683Z,14.24
2017-09-27T00:39:25.515Z,14.28
2017-09-27T00:40:34.548Z,14.39
2017-09-27T00:41:43.712Z,14.35
2017-09-27T00:42:52.543Z,14.28
2017-09-27T00:44:01.378Z,14.27
2017-09-27T00:45:10.210Z,14.25
2017-09-27T00:46:19.243Z,14.2
2017-09-27T00:47:28.077Z,14.21
2017-09-27T00:48:36.910Z,14.24
2017-09-27T00:49:45.743Z,14.21
2017-09-27T00:50:54.575Z,14.29
2017-09-27T00:52:03.411Z,14.24
2017-09-27T00:53:12.243Z,14.29
2017-09-27T00:54:21.075Z,14.17
2017-09-27T00:55:29.909Z,14.21
2017-09-27T00:56:38.743Z,14.18
2017-09-27T00:57:47.629Z,14.24
2017-09-27T00:58:56.460Z,14.25
2017-09-27T01:00:05.292Z,14.25
2017-09-27T01:01:14.125Z,14.21
2017-09-27T01:02:23.292Z,14.25
2017-09-27T01:03:32.174Z,14.32
2017-09-27T01:04:41.013Z,14.28
2017-09-27T01:05:50.175Z,14.28
2017-09-27T01:06:59.008Z,14.25
2017-09-27T01:08:07.842Z,14.21
2017-09-27T01:09:16.978Z,14.21
2017-09-27T01:10:25.809Z,14.27
2017-09-27T01:11:34.644Z,14.17
2017-09-27T01:12:43.478Z,14.21
2017-09-27T01:13:52.313Z,14.14
2017-09-27T01:15:01.201Z,14.14
2017-09-27T01:16:10.373Z,14.1
2017-09-27T01:17:19.205Z,14.12
2017-09-27T01:18:28.039Z,14.1
2017-09-27T01:19:36.873Z,14.15
2017-09-27T01:20:45.911Z,14.07
2017-09-27T01:21:54.744Z,14.14
2017-09-27T01:23:03.578Z,14.06
2017-09-27T01:24:12.410Z,14.1
2017-09-27T01:25:21.243Z,14.09
2017-09-27T01:26:30.073Z,14.07
2017-09-27T01:27:38.908Z,14
2017-09-27T01:28:47.744Z,14.03
2017-09-27T01:29:56.906Z,14.04
2017-09-27T01:31:05.739Z,14
2017-09-27T01:32:14.721Z,13.97
2017-09-27T01:33:23.555Z,14
2017-09-27T01:34:32.390Z,14.02
2017-09-27T01:35:41.223Z,14.02
2017-09-27T01:36:50.054Z,14.03
2017-09-27T01:37:58.887Z,13.92
2017-09-27T01:39:07.720Z,13.97
2017-09-27T01:40:16.555Z,13.89
2017-09-27T01:41:25.388Z,13.88
2017-09-27T01:42:34.222Z,13.84
2017-09-27T01:43:43.107Z,13.84
2017-09-27T01:44:51.942Z,13.79
2017-09-27T01:46:00.774Z,13.89
2017-09-27T01:47:09.607Z,13.82
2017-09-27T01:48:18.439Z,13.82
2017-09-27T01:49:27.272Z,13.81
2017-09-27T01:50:36.105Z,13.84
2017-09-27T01:51:44.939Z,13.78
2017-09-27T01:52:53.773Z,13.81
2017-09-27T01:54:02.605Z,13.89
2017-09-27T01:55:11.487Z,13.92
2017-09-27T01:56:20.323Z,13.82
2017-09-27T01:57:29.154Z,13.85
2017-09-27T01:58:37.988Z,13.78
2017-09-27T01:59:46.822Z,13.81
2017-09-27T02:00:56.144Z,13.79
2017-09-27T02:02:04.980Z,13.82
2017-09-27T02:03:14.142Z,13.78
2017-09-27T02:04:23.308Z,13.71
2017-09-27T02:05:32.147Z,13.78
2017-09-27T02:06:41.132Z,13.71
2017-09-27T02:07:50.294Z,13.79
2017-09-27T02:08:59.128Z,13.78
2017-09-27T02:10:07.958Z,13.78
2017-09-27T02:11:16.791Z,13.75
2017-09-27T02:12:25.673Z,13.79
2017-09-27T02:13:34.507Z,13.85
2017-09-27T02:14:43.671Z,13.73
2017-09-27T02:15:52.500Z,13.79
2017-09-27T02:17:01.334Z,13.88
2017-09-27T02:18:10.216Z,13.78
2017-09-27T02:19:19.049Z,13.79
2017-09-27T02:20:27.884Z,13.84
2017-09-27T02:21:36.717Z,13.84
2017-09-27T02:22:45.552Z,13.85
2017-09-27T02:23:54.535Z,13.87
2017-09-27T02:25:03.369Z,13.89
2017-09-27T02:26:12.202Z,13.89
2017-09-27T02:27:21.036Z,13.88
2017-09-27T02:28:29.870Z,13.89
2017-09-27T02:29:39.006Z,13.89
2017-09-27T02:30:47.842Z,13.87
2017-09-27T02:31:56.674Z,13.89
2017-09-27T02:33:05.509Z,13.89
2017-09-27T02:34:14.342Z,13.95
2017-09-27T02:35:23.227Z,13.97
2017-09-27T02:36:32.062Z,13.99
2017-09-27T02:37:40.896Z,13.96
2017-09-27T02:38:49.730Z,13.91
2017-09-27T02:39:58.563Z,13.99
2017-09-27T02:41:07.652Z,14
2017-09-27T02:42:16.484Z,14.06
2017-09-27T02:43:25.317Z,13.96
2017-09-27T02:44:34.150Z,14.02
2017-09-27T02:45:42.985Z,14
2017-09-27T02:46:51.969Z,14.15
2017-09-27T02:48:00.803Z,14.09
2017-09-27T02:49:09.637Z,14.06
2017-09-27T02:50:18.471Z,14.06
2017-09-27T02:51:27.304Z,14.06
2017-09-27T02:52:36.292Z,14.03
2017-09-27T02:53:45.456Z,14.03
2017-09-27T02:54:54.292Z,14.02
2017-09-27T02:56:03.125Z,14
2017-09-27T02:57:11.960Z,14.1
2017-09-27T02:58:20.895Z,14.06
2017-09-27T02:59:29.730Z,14.09
2017-09-27T03:00:38.559Z,14.06
2017-09-27T03:01:47.394Z,14.12
2017-09-27T03:02:56.228Z,13.99
2017-09-27T03:04:05.113Z,14.14
2017-09-27T03:05:13.947Z,14.14
2017-09-27T03:06:23.362Z,14.06
2017-09-27T03:07:32.195Z,14.1
2017-09-27T03:08:41.027Z,14.12
2017-09-27T03:09:49.912Z,14.12
2017-09-27T03:10:58.744Z,14.17
2017-09-27T03:12:07.578Z,14.1
2017-09-27T03:13:16.739Z,14.1
2017-09-27T03:14:25.570Z,14.09
2017-09-27T03:15:34.403Z,14
2017-09-27T03:16:43.237Z,14
2017-09-27T03:17:52.066Z,14.09
2017-09-27T03:19:00.899Z,14.07
2017-09-27T03:20:09.731Z,14.07
2017-09-27T03:21:18.715Z,14.15
2017-09-27T03:22:27.546Z,14.06
2017-09-27T03:23:36.380Z,14.12
2017-09-27T03:24:45.543Z,14.12
2017-09-27T03:25:54.376Z,14.1
2017-09-27T03:27:03.359Z,14.17
2017-09-27T03:28:12.194Z,14.18
2017-09-27T03:29:21.028Z,14.09
2017-09-27T03:30:29.863Z,14.15
2017-09-27T03:31:38.696Z,14.21
2017-09-27T03:32:48.061Z,14.12
2017-09-27T03:33:56.893Z,14.1
2017-09-27T03:35:05.728Z,14.09
2017-09-27T03:36:14.561Z,14.04
2017-09-27T03:37:23.394Z,14.03
2017-09-27T03:38:32.277Z,14.12
2017-09-27T03:39:41.111Z,14.09
2017-09-27T03:40:49.945Z,14.12
2017-09-27T03:41:58.778Z,14.15
2017-09-27T03:43:07.611Z,14.1
2017-09-27T03:44:16.597Z,14.12
2017-09-27T03:45:25.431Z,14.02
2017-09-27T03:46:34.263Z,14.1
2017-09-27T03:47:43.098Z,14.09
2017-09-27T03:48:51.933Z,14.1
2017-09-27T03:50:00.867Z,14.14
2017-09-27T03:51:09.705Z,14.07
2017-09-27T03:52:18.537Z,14.12
2017-09-27T03:53:27.369Z,14.17
2017-09-27T03:54:36.203Z,14.07
2017-09-27T03:55:45.085Z,14.09
2017-09-27T03:56:53.918Z,14.09
2017-09-27T03:58:02.751Z,14.07
2017-09-27T03:59:11.584Z,14.07
2017-09-27T04:00:20.418Z,14.1
2017-09-27T04:01:29.402Z,14.15
2017-09-27T04:02:38.235Z,14.06
2017-09-27T04:03:47.073Z,14.06
2017-09-27T04:04:55.906Z,14.04
2017-09-27T04:06:04.738Z,13.97
2017-09-27T04:07:13.571Z,14.03
2017-09-27T04:08:22.406Z,14
2017-09-27T04:09:31.239Z,14.04
2017-09-27T04:10:40.071Z,14.02
2017-09-27T04:11:48.905Z,14.04
2017-09-27T04:12:57.892Z,14.03
2017-09-27T04:14:07.053Z,14.02
2017-09-27T04:15:15.884Z,14.07
2017-09-27T04:16:24.720Z,14.07
2017-09-27T04:17:33.553Z,13.99
2017-09-27T04:18:42.534Z,14
2017-09-27T04:19:51.367Z,14.1
2017-09-27T04:21:00.201Z,14.1
2017-09-27T04:22:09.035Z,14.06
2017-09-27T04:23:17.868Z,14.07
2017-09-27T04:24:26.752Z,14.09
2017-09-27T04:25:35.585Z,14.1
2017-09-27T04:26:44.419Z,13.99
2017-09-27T04:27:53.252Z,14.07
2017-09-27T04:29:02.418Z,14.07
2017-09-27T04:30:11.398Z,14.02
2017-09-27T04:31:20.232Z,14.14
2017-09-27T04:32:29.120Z,14.12
2017-09-27T04:33:37.947Z,14.09
2017-09-27T04:34:46.779Z,14.14
2017-09-27T04:35:55.664Z,14.04
2017-09-27T04:37:04.497Z,14.02
2017-09-27T04:38:13.331Z,13.99
2017-09-27T04:39:22.163Z,14
2017-09-27T04:40:30.997Z,14.04
2017-09-27T04:41:39.882Z,14.06
2017-09-27T04:42:49.053Z,14.06
2017-09-27T04:43:57.878Z,14
2017-09-27T04:45:07.045Z,13.99
2017-09-27T04:46:15.883Z,14.07
2017-09-27T04:47:25.096Z,14.1
2017-09-27T04:48:33.928Z,14.06
2017-09-27T04:49:42.762Z,14.03
2017-09-27T04:50:51.595Z,14.04
2017-09-27T04:52:00.427Z,14.17
2017-09-27T04:53:09.408Z,14.1
2017-09-27T04:54:18.901Z,14.18
2017-09-27T04:55:27.735Z,14.15
2017-09-27T04:56:36.570Z,14.14
2017-09-27T04:57:45.733Z,14.1
2017-09-27T04:58:54.681Z,14.1
2017-09-27T05:00:03.606Z,14.2
2017-09-27T05:01:12.486Z,14.15
2017-09-27T05:02:21.412Z,14.04
2017-09-27T05:03:30.533Z,14.1
2017-09-27T05:04:39.685Z,14.15
2017-09-27T05:05:48.595Z,14.14
2017-09-27T05:06:57.670Z,14.1
2017-09-27T05:08:06.647Z,14.1
2017-09-27T05:09:15.568Z,14.1
2017-09-27T05:10:24.452Z,14.07
2017-09-27T05:11:33.375Z,14.1
2017-09-27T05:12:42.630Z,14.1
2017-09-27T05:13:52.071Z,14.07
2017-09-27T05:15:01.477Z,14.1
2017-09-27T05:16:10.746Z,14.1
2017-09-27T05:17:20.250Z,14.09
2017-09-27T05:18:29.082Z,14.2
2017-09-27T05:19:37.915Z,14.1
2017-09-27T05:20:46.757Z,14.12
2017-09-27T05:21:55.645Z,14
2017-09-27T05:23:04.531Z,14.12
2017-09-27T05:24:13.419Z,14.1
2017-09-27T05:25:22.254Z,14.07
2017-09-27T05:26:31.438Z,14.1
2017-09-27T05:27:40.275Z,14.21
2017-09-27T05:28:49.109Z,14.2
2017-09-27T05:29:57.942Z,14.21
2017-09-27T05:31:06.777Z,14.24
2017-09-27T05:32:15.609Z,14.18
2017-09-27T05:33:24.444Z,14.22
2017-09-27T05:34:33.280Z,14.21
2017-09-27T05:35:42.446Z,14.18
2017-09-27T05:36:51.284Z,14.21
2017-09-27T05:38:00.118Z,14.21
2017-09-27T05:39:08.949Z,14.18
2017-09-27T05:40:17.789Z,14.22
2017-09-27T05:41:26.953Z,14.17
2017-09-27T05:42:35.789Z,14.18
2017-09-27T05:43:44.623Z,14.21
2017-09-27T05:44:53.457Z,14.21
2017-09-27T05:46:02.290Z,14.28
2017-09-27T05:47:11.123Z,14.28
2017-09-27T05:48:19.958Z,14.33
2017-09-27T05:49:28.791Z,14.29
2017-09-27T05:50:37.955Z,14.25
2017-09-27T05:51:46.793Z,14.29
2017-09-27T05:52:55.728Z,14.28
2017-09-27T05:54:04.565Z,14.28
2017-09-27T05:55:13.400Z,14.29
2017-09-27T05:56:22.235Z,14.33
2017-09-27T05:57:31.068Z,14.29
2017-09-27T05:58:39.902Z,14.22
2017-09-27T05:59:49.071Z,14.24
2017-09-27T06:00:57.907Z,14.27
2017-09-27T06:02:06.742Z,14.27
2017-09-27T06:03:15.575Z,14.27
2017-09-27T06:04:24.610Z,14.24
2017-09-27T06:05:33.444Z,14.21
2017-09-27T06:06:42.279Z,14.29
2017-09-27T06:07:51.114Z,14.25
2017-09-27T06:09:00.283Z,14.35
2017-09-27T06:10:09.220Z,14.18
2017-09-27T06:11:18.055Z,14.18
2017-09-27T06:12:26.890Z,14.29
2017-09-27T06:13:35.726Z,14.24
2017-09-27T06:14:44.562Z,14.24
2017-09-27T06:15:53.925Z,14.27
2017-09-27T06:17:02.760Z,14.24
2017-09-27T06:18:11.596Z,14.29
2017-09-27T06:19:20.492Z,14.24
2017-09-27T06:20:29.289Z,14.28
2017-09-27T06:21:38.226Z,14.24
2017-09-27T06:22:47.062Z,14.29
2017-09-27T06:23:55.898Z,14.35
2017-09-27T06:25:05.122Z,14.36
2017-09-27T06:26:13.956Z,14.28
2017-09-27T06:27:22.816Z,14.32
2017-09-27T06:28:31.651Z,14.33
2017-09-27T06:29:40.482Z,14.28
2017-09-27T06:30:49.322Z,14.32
2017-09-27T06:31:58.155Z,14.37
2017-09-27T06:33:07.085Z,14.37
2017-09-27T06:34:16.252Z,14.37
2017-09-27T06:35:25.088Z,14.37
2017-09-27T06:36:33.921Z,14.36
2017-09-27T06:37:42.804Z,14.37
2017-09-27T06:38:51.981Z,14.46
2017-09-27T06:40:00.811Z,14.54
2017-09-27T06:41:09.644Z,14.51
2017-09-27T06:42:18.478Z,14.52
2017-09-27T06:43:59.420Z,14.42
2017-09-27T06:45:08.256Z,14.42
2017-09-27T06:46:17.097Z,14.33
2017-09-27T06:47:25.924Z,14.28
2017-09-27T06:48:34.762Z,14.32
2017-09-27T06:49:43.648Z,14.28
2017-09-27T06:50:52.483Z,14.32
2017-09-27T06:52:01.324Z,14.33
2017-09-27T06:53:10.164Z,14.37
2017-09-27T06:54:18.994Z,14.43
2017-09-27T06:55:27.928Z,14.45
2017-09-27T06:56:36.763Z,14.36
2017-09-27T06:57:45.599Z,14.51
2017-09-27T06:58:54.436Z,14.36
2017-09-27T07:00:03.271Z,14.33
2017-09-27T07:01:12.253Z,14.4
2017-09-27T07:02:21.087Z,14.36
2017-09-27T07:03:29.920Z,14.37
2017-09-27T07:04:38.757Z,14.32
2017-09-27T07:05:47.593Z,14.29
2017-09-27T07:06:56.861Z,14.4
2017-09-27T07:08:05.696Z,14.29
2017-09-27T07:09:14.532Z,14.32
2017-09-27T07:10:23.364Z,14.35
2017-09-27T07:11:32.200Z,14.32
2017-09-27T07:12:41.036Z,14.28
2017-09-27T07:13:49.871Z,14.27
2017-09-27T07:14:58.707Z,14.28
2017-09-27T07:16:07.544Z,14.27
2017-09-27T07:17:16.377Z,14.35
2017-09-27T07:18:25.311Z,14.33
2017-09-27T07:19:34.480Z,14.33
2017-09-27T07:20:43.318Z,14.36
2017-09-27T07:21:52.155Z,14.32
2017-09-27T07:23:00.991Z,14.37
2017-09-27T07:24:09.926Z,14.42
2017-09-27T07:25:18.759Z,14.45
2017-09-27T07:26:27.594Z,14.37
2017-09-27T07:27:36.427Z,14.4
2017-09-27T07:28:45.266Z,14.42
2017-09-27T07:29:54.152Z,14.43
2017-09-27T07:31:02.988Z,14.39
2017-09-27T07:32:11.823Z,14.33
2017-09-27T07:33:20.658Z,14.33
2017-09-27T07:34:29.494Z,14.36
2017-09-27T07:35:38.380Z,14.33
2017-09-27T07:36:47.212Z,14.39
2017-09-27T07:37:56.053Z,14.43
2017-09-27T07:39:04.887Z,14.33
2017-09-27T07:40:13.753Z,14.46
2017-09-27T07:41:22.757Z,14.37
2017-09-27T07:42:31.593Z,14.5
2017-09-27T07:43:40.428Z,14.39
2017-09-27T07:44:49.261Z,14.33
2017-09-27T07:45:58.098Z,14.46
2017-09-27T07:47:07.410Z,14.45
2017-09-27T07:48:16.248Z,14.5
2017-09-27T07:49:25.084Z,14.52
2017-09-27T07:50:33.920Z,14.5
2017-09-27T07:51:42.754Z,14.47
2017-09-27T07:52:51.589Z,14.54
2017-09-27T07:54:00.423Z,14.52
2017-09-27T07:55:09.260Z,14.54
2017-09-27T07:56:18.098Z,14.51
2017-09-27T07:57:26.932Z,14.47
2017-09-27T07:58:35.918Z,14.45
2017-09-27T07:59:44.753Z,14.46
2017-09-27T08:00:53.589Z,14.51
2017-09-27T08:02:02.423Z,14.55
2017-09-27T08:03:11.600Z,14.51
2017-09-27T08:04:20.737Z,14.58
2017-09-27T08:05:29.572Z,14.54
2017-09-27T08:06:38.743Z,14.52
2017-09-27T08:07:47.584Z,14.57
2017-09-27T08:08:56.412Z,14.57
2017-09-27T08:10:05.755Z,14.57
2017-09-27T08:11:14.922Z,14.55
2017-09-27T08:12:23.759Z,14.64
2017-09-27T08:13:32.595Z,14.6
2017-09-27T08:14:41.429Z,14.55
2017-09-27T08:15:50.318Z,14.54
2017-09-27T08:16:59.816Z,14.61
2017-09-27T08:18:08.650Z,14.62
2017-09-27T08:19:17.487Z,14.62
2017-09-27T08:20:26.323Z,14.58
2017-09-27T08:21:35.456Z,14.65
2017-09-27T08:22:44.292Z,14.52
2017-09-27T08:23:53.134Z,14.64
2017-09-27T08:25:01.966Z,14.65
2017-09-27T08:26:10.801Z,14.64
2017-09-27T08:27:19.888Z,14.73
2017-09-27T08:28:28.724Z,14.73
2017-09-27T08:29:37.891Z,14.61
2017-09-27T08:30:46.728Z,14.7
2017-09-27T08:31:55.563Z,14.6
2017-09-27T08:33:04.550Z,14.64
2017-09-27T08:34:13.387Z,14.64
2017-09-27T08:35:22.562Z,14.7
2017-09-27T08:36:31.401Z,14.73
2017-09-27T08:37:40.240Z,14.64
2017-09-27T08:38:49.375Z,14.69
2017-09-27T08:39:58.212Z,14.72
2017-09-27T08:41:07.047Z,14.64
2017-09-27T08:42:15.881Z,14.62
2017-09-27T08:43:24.717Z,14.72
2017-09-27T08:44:33.601Z,14.62
2017-09-27T08:45:42.436Z,14.6
2017-09-27T08:46:51.271Z,14.61
2017-09-27T08:48:00.105Z,14.62
2017-09-27T08:49:08.944Z,14.68
2017-09-27T08:50:18.027Z,14.65
2017-09-27T08:51:26.863Z,14.6
2017-09-27T08:52:36.037Z,14.73
2017-09-27T08:53:44.872Z,14.77
2017-09-27T08:54:53.710Z,14.64
2017-09-27T08:56:02.646Z,14.77
2017-09-27T08:57:11.487Z,14.77
2017-09-27T08:58:20.325Z,14.8
2017-09-27T08:59:29.162Z,14.8
2017-09-27T09:00:37.999Z,14.91
2017-09-27T09:01:46.933Z,14.88
2017-09-27T09:02:55.765Z,14.89
2017-09-27T09:04:04.598Z,14.91
2017-09-27T09:05:13.432Z,14.92
2017-09-27T09:06:22.266Z,14.96
2017-09-27T09:07:31.149Z,14.88
2017-09-27T09:08:39.993Z,14.99
2017-09-27T09:09:48.820Z,15.11
2017-09-27T09:10:57.656Z,15.07
2017-09-27T09:12:06.496Z,15.13
2017-09-27T09:13:15.382Z,15.27
2017-09-27T09:14:24.557Z,15.23
2017-09-27T09:15:33.721Z,15.34
2017-09-27T09:16:42.558Z,15.32
2017-09-27T09:17:51.723Z,15.19
2017-09-27T09:19:00.658Z,15.28
2017-09-27T09:20:09.494Z,15.25
2017-09-27T09:21:18.331Z,15.28
2017-09-27T09:22:27.169Z,15.25
2017-09-27T09:23:36.008Z,15.2
2017-09-27T09:24:45.277Z,15.27
2017-09-27T09:25:54.114Z,15.32
2017-09-27T09:27:02.949Z,15.28
2017-09-27T09:28:11.784Z,15.27
2017-09-27T09:29:20.620Z,15.29
2017-09-27T09:30:29.557Z,15.34
2017-09-27T09:31:38.392Z,15.27
2017-09-27T09:32:47.231Z,15.23
2017-09-27T09:33:56.067Z,15.14
2017-09-27T09:35:04.902Z,15.17
2017-09-27T09:36:13.938Z,15.19
2017-09-27T09:37:22.773Z,15.27
2017-09-27T09:38:31.612Z,15.21
2017-09-27T09:39:40.450Z,15.25
2017-09-27T09:40:49.286Z,15.2
2017-09-27T09:41:58.329Z,15.27
2017-09-27T09:43:07.161Z,15.25
2017-09-27T09:44:15.995Z,15.32
2017-09-27T09:45:24.830Z,15.28
2017-09-27T09:46:33.665Z,15.2
2017-09-27T09:47:42.600Z,15.14
2017-09-27T09:48:51.436Z,15.13
2017-09-27T09:50:00.273Z,15.13
2017-09-27T09:51:09.113Z,15.09
2017-09-27T09:52:18.279Z,15.13
2017-09-27T09:53:27.265Z,15.11
2017-09-27T09:54:36.101Z,15.14
2017-09-27T09:55:45.269Z,15.09
2017-09-27T09:56:54.107Z,15.17
2017-09-27T09:58:02.943Z,15.13
2017-09-27T09:59:11.981Z,15.1
2017-09-27T10:00:20.820Z,15.21
2017-09-27T10:01:29.658Z,15.11
2017-09-27T10:02:38.494Z,15.13
2017-09-27T10:03:48.001Z,15.09
2017-09-27T10:04:57.036Z,15.14
2017-09-27T10:06:05.871Z,15.1
2017-09-27T10:07:14.705Z,15.06
2017-09-27T10:08:23.543Z,14.99
2017-09-27T10:09:33.048Z,14.98
2017-09-27T10:10:42.318Z,14.96
2017-09-27T10:11:51.513Z,15.03
2017-09-27T10:13:00.352Z,15.03
2017-09-27T10:14:09.187Z,15.1
2017-09-27T10:15:18.021Z,15.06
2017-09-27T10:16:26.858Z,15.17
2017-09-27T10:17:35.694Z,15.11
2017-09-27T10:18:44.530Z,15.06
2017-09-27T10:19:53.364Z,15.14
2017-09-27T10:21:02.201Z,15.19
2017-09-27T10:22:11.286Z,15.25
2017-09-27T10:23:20.128Z,15.19
2017-09-27T10:24:28.965Z,15.14
2017-09-27T10:25:37.801Z,15.21
2017-09-27T10:26:46.638Z,15.28
2017-09-27T10:27:55.523Z,15.31
2017-09-27T10:29:04.356Z,15.17
2017-09-27T10:30:13.194Z,15.13
2017-09-27T10:31:22.030Z,15.1
2017-09-27T10:32:30.865Z,15.13
2017-09-27T10:33:39.853Z,15.07
2017-09-27T10:34:48.689Z,15.07
2017-09-27T10:35:57.525Z,15.1
2017-09-27T10:37:06.360Z,15.1
2017-09-27T10:38:15.195Z,15.07
2017-09-27T10:39:24.332Z,15.14
2017-09-27T10:40:33.165Z,15.09
2017-09-27T10:41:42.340Z,15.14
2017-09-27T10:42:51.176Z,15.2
2017-09-27T10:44:00.012Z,15.09
2017-09-27T10:45:08.946Z,15.17
2017-09-27T10:46:17.783Z,15.14
2017-09-27T10:47:26.618Z,15.31
2017-09-27T10:48:35.785Z,15.2
2017-09-27T10:49:44.619Z,15.21
2017-09-27T10:50:53.506Z,15.1
2017-09-27T10:52:02.343Z,15.11
2017-09-27T10:53:11.199Z,15.17
2017-09-27T10:54:20.017Z,15.14
2017-09-27T10:55:28.853Z,15.11
2017-09-27T10:56:37.938Z,15.14
2017-09-27T10:57:46.775Z,15.13
2017-09-27T10:58:55.612Z,15.13
2017-09-27T11:00:04.457Z,15.16
2017-09-27T11:01:13.305Z,15.32
2017-09-27T11:02:23.504Z,15.27
2017-09-27T11:03:33.690Z,15.25
2017-09-27T11:04:42.525Z,15.21
2017-09-27T11:05:51.380Z,15.19
2017-09-27T11:07:00.902Z,15.21
2017-09-27T11:08:11.330Z,15.17
2017-09-27T11:09:21.279Z,15.17
2017-09-27T11:10:30.123Z,15.14
2017-09-27T11:11:39.294Z,15.23
2017-09-27T11:12:49.539Z,15.34
2017-09-27T11:13:58.956Z,15.27
2017-09-27T11:15:07.793Z,15.29
2017-09-27T11:16:16.965Z,15.21
2017-09-27T11:17:25.801Z,15.25
2017-09-27T11:18:34.637Z,15.23
2017-09-27T11:19:43.571Z,15.25
2017-09-27T11:20:52.407Z,15.2
2017-09-27T11:22:01.572Z,15.31
2017-09-27T11:23:10.409Z,15.29
2017-09-27T11:24:19.243Z,15.28
2017-09-27T11:25:28.127Z,15.34
2017-09-27T11:26:36.960Z,15.32
2017-09-27T11:27:45.799Z,15.32
2017-09-27T11:28:54.642Z,15.43
2017-09-27T11:30:03.478Z,15.27
2017-09-27T11:31:12.614Z,15.36
2017-09-27T11:32:21.456Z,15.27
2017-09-27T11:33:30.294Z,15.28
2017-09-27T11:34:39.130Z,15.34
2017-09-27T11:35:47.968Z,15.31
2017-09-27T11:36:56.855Z,15.29
2017-09-27T11:38:05.691Z,15.27
2017-09-27T11:39:14.529Z,15.29
2017-09-27T11:40:23.696Z,15.29
2017-09-27T11:41:32.535Z,15.28
2017-09-27T11:42:41.423Z,15.34
2017-09-27T11:43:50.594Z,15.35
2017-09-27T11:44:59.431Z,15.39
2017-09-27T11:46:08.268Z,15.44
2017-09-27T11:47:17.103Z,15.36
2017-09-27T11:48:26.289Z,15.41
2017-09-27T11:49:35.125Z,15.41
2017-09-27T11:50:43.960Z,15.34
2017-09-27T11:51:52.797Z,15.28
2017-09-27T11:53:01.969Z,15.39
2017-09-27T11:54:10.904Z,15.44
2017-09-27T11:55:19.741Z,15.36
2017-09-27T11:56:28.577Z,15.39
2017-09-27T11:57:37.415Z,15.43
2017-09-27T11:58:46.253Z,15.49
2017-09-27T11:59:55.201Z,15.47
2017-09-27T12:01:04.036Z,15.49
2017-09-27T12:02:12.872Z,15.49
2017-09-27T12:03:21.710Z,15.56
2017-09-27T12:04:30.547Z,15.53
2017-09-27T12:05:39.483Z,15.53
2017-09-27T12:06:48.323Z,15.5
2017-09-27T12:07:57.159Z,15.57
2017-09-27T12:09:05.998Z,15.47
2017-09-27T12:10:15.171Z,15.5
2017-09-27T12:11:24.259Z,15.53
2017-09-27T12:12:33.097Z,15.51
2017-09-27T12:13:41.933Z,15.53
2017-09-27T12:14:50.768Z,15.57
2017-09-27T12:15:59.605Z,15.53
2017-09-27T12:17:08.492Z,15.56
2017-09-27T12:18:17.664Z,15.62
2017-09-27T12:19:26.522Z,15.53
2017-09-27T12:20:35.360Z,15.51
2017-09-27T12:21:44.199Z,15.56
2017-09-27T12:22:53.133Z,15.51
2017-09-27T12:24:01.970Z,15.51
2017-09-27T12:25:10.807Z,15.49
2017-09-27T12:26:19.644Z,15.5
2017-09-27T12:27:28.480Z,15.54
2017-09-27T12:28:37.463Z,15.53
2017-09-27T12:29:46.299Z,15.53
2017-09-27T12:30:55.134Z,15.53
2017-09-27T12:32:04.033Z,15.57
2017-09-27T12:33:12.917Z,15.5
2017-09-27T12:34:22.389Z,15.57
2017-09-27T12:35:31.220Z,15.64
2017-09-27T12:36:40.055Z,15.67
2017-09-27T12:37:48.893Z,15.64
2017-09-27T12:38:57.728Z,15.68
2017-09-27T12:40:06.715Z,15.75
2017-09-27T12:41:15.552Z,15.76
2017-09-27T12:42:24.387Z,15.64
2017-09-27T12:43:33.597Z,15.68
2017-09-27T12:44:42.506Z,15.72
2017-09-27T12:45:51.442Z,15.72
2017-09-27T12:47:00.277Z,15.75
2017-09-27T12:48:09.118Z,15.83
2017-09-27T12:49:17.991Z,15.82
2017-09-27T12:50:26.794Z,15.82
2017-09-27T12:51:35.780Z,15.83
2017-09-27T12:52:44.643Z,15.87
2017-09-27T12:53:53.493Z,15.78
2017-09-27T12:55:02.333Z,15.78
2017-09-27T12:56:11.174Z,15.83
2017-09-27T12:57:20.120Z,15.84
2017-09-27T12:58:29.297Z,15.97
2017-09-27T12:59:38.343Z,15.97
2017-09-27T13:00:47.264Z,15.93
2017-09-27T13:01:56.464Z,15.97
2017-09-27T13:03:05.589Z,15.94
2017-09-27T13:04:14.428Z,15.97
2017-09-27T13:05:23.274Z,15.93
2017-09-27T13:06:32.208Z,16.05
2017-09-27T13:07:41.051Z,15.97
2017-09-27T13:08:50.085Z,15.97
2017-09-27T13:09:58.920Z,16
2017-09-27T13:11:07.754Z,15.92
2017-09-27T13:12:16.591Z,15.92
2017-09-27T13:13:25.429Z,16.01
2017-09-27T13:14:34.318Z,16
2017-09-27T13:15:43.494Z,15.92
2017-09-27T13:16:52.328Z,15.94
2017-09-27T13:18:01.173Z,15.9
2017-09-27T13:19:10.010Z,15.97
2017-09-27T13:20:18.997Z,15.93
2017-09-27T13:21:27.833Z,15.97
2017-09-27T13:22:36.669Z,15.92
2017-09-27T13:23:45.505Z,15.93
2017-09-27T13:24:54.342Z,16.01
2017-09-27T13:26:03.283Z,15.94
2017-09-27T13:27:12.117Z,15.92
2017-09-27T13:28:20.956Z,15.94
2017-09-27T13:29:29.798Z,15.94
2017-09-27T13:30:38.633Z,15.96
2017-09-27T13:31:47.570Z,15.93
2017-09-27T13:32:56.422Z,15.96
2017-09-27T13:34:05.257Z,16
2017-09-27T13:35:14.095Z,16
2017-09-27T13:36:22.930Z,15.93
2017-09-27T13:37:31.923Z,16.04
2017-09-27T13:38:40.761Z,15.96
2017-09-27T13:39:49.597Z,16.01
2017-09-27T13:40:58.433Z,16.05
2017-09-27T13:42:07.271Z,15.96
2017-09-27T13:43:16.491Z,15.96
2017-09-27T13:44:25.328Z,15.96
2017-09-27T13:45:34.169Z,15.94
2017-09-27T13:46:43.006Z,16.01
2017-09-27T13:47:52.175Z,16.05
2017-09-27T13:49:01.061Z,16.01
2017-09-27T13:50:09.904Z,16.14
2017-09-27T13:51:18.740Z,16.09
2017-09-27T13:52:27.579Z,16.11
2017-09-27T13:53:36.413Z,16.12
2017-09-27T13:54:45.453Z,16.12
2017-09-27T13:55:54.291Z,16.15
2017-09-27T13:57:03.126Z,16.15
2017-09-27T13:58:11.963Z,16.04
2017-09-27T13:59:20.804Z,16.12
2017-09-27T14:00:29.947Z,16.08
2017-09-27T14:01:38.786Z,16.17
2017-09-27T14:02:47.624Z,16.01
2017-09-27T14:03:56.462Z,16.01
2017-09-27T14:05:05.302Z,15.96
2017-09-27T14:06:14.289Z,15.97
2017-09-27T14:07:23.128Z,16.02
2017-09-27T14:08:31.970Z,16
2017-09-27T14:09:40.808Z,16
2017-09-27T14:10:49.642Z,16.02
2017-09-27T14:11:58.537Z,16.09
2017-09-27T14:13:07.362Z,16.12
2017-09-27T14:14:16.199Z,16.07
2017-09-27T14:15:25.042Z,16.01
2017-09-27T14:16:33.903Z,16.04
2017-09-27T14:17:42.741Z,16.02
2017-09-27T14:18:51.577Z,16.02
2017-09-27T14:20:00.414Z,16.17
2017-09-27T14:21:09.305Z,16.11
2017-09-27T14:22:18.162Z,16.15
2017-09-27T14:23:26.998Z,16.12
2017-09-27T14:24:35.834Z,16.08
2017-09-27T14:25:44.670Z,16.08
2017-09-27T14:26:53.505Z,16.14
2017-09-27T14:28:02.673Z,16.15
2017-09-27T14:29:11.510Z,16.15
2017-09-27T14:30:20.354Z,16.14
2017-09-27T14:31:29.191Z,16.17
2017-09-27T14:32:38.030Z,16.05
2017-09-27T14:33:47.223Z,16.09
2017-09-27T14:34:56.083Z,16.04
2017-09-27T14:36:04.924Z,16
2017-09-27T14:37:14.094Z,16.08
2017-09-27T14:38:22.932Z,16.09
2017-09-27T14:39:31.767Z,16.09
2017-09-27T14:40:40.637Z,16.12
2017-09-27T14:41:49.769Z,16.11
2017-09-27T14:42:58.656Z,16.12
2017-09-27T14:44:07.829Z,16.17
2017-09-27T14:45:16.670Z,16.14
2017-09-27T14:46:25.514Z,16.07
2017-09-27T14:47:34.365Z,16.01
2017-09-27T14:48:43.404Z,16.01
2017-09-27T14:49:52.244Z,16.09
2017-09-27T14:51:01.083Z,16.05
2017-09-27T14:52:09.929Z,16.04